Time;durP1;ratioP1;P1;durP2;ratioP2;P2;SDS_P1;SDS_P2;PMS_P1;PMS_P2;Temp;Humidity;BMP_temperature;BMP_pressure;BME280_temperature;BME280_humidity;BME280_pressure;Samples;Min_cycle;Max_cycle;Signal;HPM_P1;HPM_P2
2023/08/05 00:01:02;;;;;;;6.43;4.00;;;14.50;99.90;;;;;;5060547;22;20049;-79
2023/08/05 00:03:28;;;;;;;7.05;3.55;;;14.50;99.90;;;;;;5027032;28;20559;-78
2023/08/05 00:05:53;;;;;;;6.93;3.72;;;14.50;99.90;;;;;;5024931;28;20459;-79
2023/08/05 00:08:19;;;;;;;8.38;4.00;;;14.50;99.90;;;;;;5035878;28;20159;-79
2023/08/05 00:10:46;;;;;;;7.53;4.05;;;14.50;99.90;;;;;;5038274;28;20048;-79
2023/08/05 00:13:12;;;;;;;6.60;3.92;;;14.50;99.90;;;;;;5020815;28;20069;-79
2023/08/05 00:15:39;;;;;;;11.77;4.75;;;14.50;99.90;;;;;;5015338;28;20512;-79
2023/08/05 00:18:05;;;;;;;8.27;4.63;;;14.60;99.90;;;;;;5029195;28;20103;-81
2023/08/05 00:20:30;;;;;;;7.80;4.68;;;14.60;99.90;;;;;;5021038;28;20033;-79
2023/08/05 00:22:56;;;;;;;8.00;4.32;;;14.60;99.90;;;;;;5030688;28;20462;-78
2023/08/05 00:25:22;;;;;;;7.63;4.30;;;14.60;99.90;;;;;;5026060;28;20439;-78
2023/08/05 00:27:48;;;;;;;10.48;5.18;;;14.60;99.90;;;;;;5016212;28;20121;-78
2023/08/05 00:30:13;;;;;;;10.85;3.63;;;14.50;99.90;;;;;;5016561;28;20521;-78
2023/08/05 00:32:39;;;;;;;3.85;2.92;;;14.40;99.90;;;;;;5009366;28;20037;-78
2023/08/05 00:35:06;;;;;;;8.55;3.45;;;14.40;99.90;;;;;;5022721;28;20053;-78
2023/08/05 00:37:33;;;;;;;7.45;4.00;;;14.30;99.90;;;;;;5024934;28;20067;-79
2023/08/05 00:39:59;;;;;;;8.48;3.80;;;14.30;99.90;;;;;;5014744;28;20048;-79
2023/08/05 00:42:28;;;;;;;7.03;4.13;;;14.20;99.90;;;;;;5007986;28;20056;-79
2023/08/05 00:44:54;;;;;;;7.65;4.28;;;14.20;99.90;;;;;;5030858;28;20488;-79
2023/08/05 00:47:20;;;;;;;7.13;4.40;;;14.20;99.90;;;;;;5028898;28;20068;-79
2023/08/05 00:49:49;;;;;;;7.50;4.53;;;14.20;99.90;;;;;;5032793;28;20501;-79
2023/08/05 00:52:16;;;;;;;8.30;5.05;;;14.10;99.90;;;;;;5021929;28;20033;-79
2023/08/05 00:54:42;;;;;;;12.48;5.25;;;14.10;99.90;;;;;;5031645;28;20549;-78
2023/08/05 00:57:10;;;;;;;10.18;5.75;;;14.10;99.90;;;;;;5027761;28;20045;-78
2023/08/05 00:59:36;;;;;;;8.10;5.50;;;14.10;99.90;;;;;;5024206;28;20051;-78
2023/08/05 01:02:01;;;;;;;11.85;5.90;;;14.10;99.90;;;;;;5035300;28;20049;-78
2023/08/05 01:04:27;;;;;;;9.20;5.53;;;14.10;99.90;;;;;;5030295;28;20036;-78
2023/08/05 01:06:53;;;;;;;10.23;5.35;;;14.00;99.90;;;;;;5026394;28;20045;-78
2023/08/05 01:09:19;;;;;;;9.55;5.78;;;14.00;99.90;;;;;;5030064;28;20043;-79
2023/08/05 01:11:45;;;;;;;8.45;4.95;;;14.00;99.90;;;;;;5026775;28;20045;-79
2023/08/05 01:14:11;;;;;;;8.52;5.38;;;14.00;99.90;;;;;;5028718;28;20049;-79
2023/08/05 01:16:37;;;;;;;9.30;5.82;;;13.90;99.90;;;;;;5030239;28;20053;-79
2023/08/05 01:19:04;;;;;;;13.38;5.90;;;13.80;99.90;;;;;;5034669;28;20063;-79
2023/08/05 01:21:48;;;;;;;6.90;4.70;;;13.90;99.90;;;;;;5032180;28;20075;-79
2023/08/05 01:24:24;;;;;;;8.30;3.75;;;13.90;99.90;;;;;;5045141;28;20121;-79
2023/08/05 01:26:51;;;;;;;8.52;3.33;;;13.90;99.90;;;;;;5030985;28;20052;-79
2023/08/05 01:29:17;;;;;;;4.20;3.20;;;13.80;99.90;;;;;;5033288;28;20128;-79
2023/08/05 01:31:45;;;;;;;9.10;3.42;;;13.80;99.90;;;;;;5032143;28;20084;-79
2023/08/05 01:34:11;;;;;;;5.47;3.50;;;13.80;99.90;;;;;;5031132;28;20129;-79
2023/08/05 01:36:37;;;;;;;4.95;3.20;;;13.70;99.90;;;;;;5031813;28;20057;-79
2023/08/05 01:39:03;;;;;;;5.53;3.38;;;13.70;99.90;;;;;;5027198;28;20041;-79
2023/08/05 01:41:29;;;;;;;7.75;3.88;;;13.70;99.90;;;;;;5019290;28;20033;-79
2023/08/05 01:43:54;;;;;;;6.10;3.70;;;13.60;99.90;;;;;;5008689;28;20041;-79
2023/08/05 01:46:20;;;;;;;6.72;3.90;;;13.60;99.90;;;;;;5029198;28;20141;-79
2023/08/05 01:48:46;;;;;;;7.38;4.22;;;13.60;99.90;;;;;;5027369;28;20127;-79
2023/08/05 01:51:11;;;;;;;8.02;4.97;;;13.60;99.90;;;;;;5028703;28;20041;-79
2023/08/05 01:53:37;;;;;;;9.15;5.40;;;13.60;99.90;;;;;;5036553;28;20132;-79
2023/08/05 01:56:03;;;;;;;10.98;5.40;;;13.70;99.90;;;;;;5023681;28;20073;-79
2023/08/05 01:58:28;;;;;;;9.35;5.43;;;13.70;99.90;;;;;;5029031;28;20048;-79
2023/08/05 02:00:54;;;;;;;12.77;5.47;;;13.70;99.90;;;;;;5028106;28;20129;-79
2023/08/05 02:03:20;;;;;;;10.23;5.25;;;13.70;99.90;;;;;;5008077;28;20516;-79
2023/08/05 02:05:46;;;;;;;8.70;5.43;;;13.80;99.90;;;;;;5011119;28;20037;-79
2023/08/05 02:08:12;;;;;;;8.43;5.20;;;13.80;99.90;;;;;;5026557;28;20041;-79
2023/08/05 02:10:37;;;;;;;7.75;5.38;;;13.80;99.90;;;;;;5020027;28;20516;-79
2023/08/05 02:13:06;;;;;;;8.30;5.28;;;13.90;99.90;;;;;;5020741;28;20044;-79
2023/08/05 02:15:32;;;;;;;10.23;5.55;;;13.90;99.90;;;;;;5037612;28;20049;-79
2023/08/05 02:17:58;;;;;;;10.25;5.45;;;14.00;99.90;;;;;;5028418;28;20038;-79
2023/08/05 02:20:24;;;;;;;9.85;5.10;;;13.90;99.90;;;;;;5026336;28;20029;-79
2023/08/05 02:22:49;;;;;;;10.50;5.75;;;14.00;99.90;;;;;;5032345;28;20177;-79
2023/08/05 02:25:15;;;;;;;9.25;5.38;;;14.00;99.90;;;;;;5026084;28;20066;-79
2023/08/05 02:27:40;;;;;;;6.63;5.20;;;14.10;99.90;;;;;;5033052;28;20033;-79
2023/08/05 02:30:08;;;;;;;7.93;5.55;;;14.00;99.90;;;;;;5023729;28;20060;-79
2023/08/05 02:32:33;;;;;;;9.45;5.50;;;14.00;99.90;;;;;;5027105;28;20096;-79
2023/08/05 02:34:59;;;;;;;8.18;5.70;;;14.10;99.90;;;;;;5029326;28;20061;-79
2023/08/05 02:37:24;;;;;;;10.57;5.43;;;14.10;99.90;;;;;;5036680;28;20098;-79
2023/08/05 02:39:50;;;;;;;12.45;5.50;;;14.10;99.90;;;;;;5030709;28;20057;-79
2023/08/05 02:42:16;;;;;;;8.10;5.82;;;14.10;99.90;;;;;;5031997;28;20098;-79
2023/08/05 02:44:41;;;;;;;8.85;5.20;;;14.10;99.90;;;;;;5031947;28;20036;-79
2023/08/05 02:47:07;;;;;;;8.68;5.47;;;14.10;99.90;;;;;;5021215;28;20038;-79
2023/08/05 02:49:32;;;;;;;9.27;5.72;;;14.10;99.90;;;;;;5032817;28;20144;-79
2023/08/05 02:51:58;;;;;;;8.27;5.85;;;14.20;99.90;;;;;;5023159;28;20561;-79
2023/08/05 02:54:24;;;;;;;6.53;4.68;;;14.20;99.90;;;;;;5030030;28;20028;-79
2023/08/05 02:56:49;;;;;;;8.07;4.80;;;14.20;99.90;;;;;;5029295;28;20037;-79
2023/08/05 02:59:15;;;;;;;9.07;4.88;;;14.20;99.90;;;;;;5025993;28;20128;-79
2023/08/05 03:01:41;;;;;;;7.97;5.10;;;14.20;99.90;;;;;;5030918;28;20095;-79
2023/08/05 03:04:06;;;;;;;6.78;4.95;;;14.20;99.90;;;;;;5028083;28;20120;-79
2023/08/05 03:06:32;;;;;;;10.23;5.47;;;14.20;99.90;;;;;;5022244;28;20041;-79
2023/08/05 03:08:58;;;;;;;7.97;5.20;;;14.20;99.90;;;;;;5014694;28;20041;-79
2023/08/05 03:11:24;;;;;;;8.65;5.47;;;14.20;99.90;;;;;;5048789;28;20051;-79
2023/08/05 03:13:49;;;;;;;10.20;5.53;;;14.20;99.90;;;;;;5031182;28;20404;-79
2023/08/05 03:16:15;;;;;;;9.95;5.50;;;14.20;99.90;;;;;;5029663;28;20045;-79
2023/08/05 03:18:41;;;;;;;8.13;5.28;;;14.20;99.90;;;;;;5022713;28;20037;-79
2023/08/05 03:21:06;;;;;;;10.30;5.35;;;14.20;99.90;;;;;;5026980;28;20117;-79
2023/08/05 03:23:32;;;;;;;8.30;5.28;;;14.20;99.90;;;;;;5047678;28;20064;-79
2023/08/05 03:25:58;;;;;;;9.98;5.03;;;14.20;99.90;;;;;;5017130;28;20095;-79
2023/08/05 03:28:23;;;;;;;9.75;5.40;;;14.30;99.90;;;;;;5023746;28;20033;-79
2023/08/05 03:30:49;;;;;;;8.10;5.50;;;14.30;99.90;;;;;;5013244;28;20365;-79
2023/08/05 03:33:14;;;;;;;8.60;5.40;;;14.30;99.90;;;;;;5046547;28;20094;-79
2023/08/05 03:35:44;;;;;;;8.38;5.32;;;14.30;99.90;;;;;;5018986;28;20041;-79
2023/08/05 03:38:09;;;;;;;10.50;5.28;;;14.30;99.90;;;;;;5028615;28;20489;-79
2023/08/05 03:40:35;;;;;;;11.13;5.53;;;14.30;99.90;;;;;;5025635;28;20039;-79
2023/08/05 03:43:03;;;;;;;8.48;4.85;;;14.40;99.90;;;;;;5028153;28;20051;-79
2023/08/05 03:45:28;;;;;;;10.95;5.32;;;14.30;99.90;;;;;;5013767;28;20045;-79
2023/08/05 03:47:55;;;;;;;9.90;5.28;;;14.30;99.90;;;;;;5025125;28;20546;-79
2023/08/05 03:50:21;;;;;;;9.45;5.50;;;14.40;99.90;;;;;;5020498;28;20040;-79
2023/08/05 03:52:50;;;;;;;10.57;5.45;;;14.30;99.90;;;;;;5010242;28;20041;-79
2023/08/05 03:55:16;;;;;;;10.45;5.05;;;14.40;99.90;;;;;;5010386;28;20581;-79
2023/08/05 03:57:42;;;;;;;7.30;4.90;;;14.30;99.90;;;;;;5011755;28;20136;-79
2023/08/05 04:00:11;;;;;;;8.07;4.72;;;14.40;99.90;;;;;;5019409;28;20112;-80
2023/08/05 04:02:37;;;;;;;9.02;4.47;;;14.30;99.90;;;;;;5016144;28;20073;-79
2023/08/05 04:05:04;;;;;;;10.02;4.57;;;14.30;99.90;;;;;;5026585;28;20041;-79
2023/08/05 04:07:31;;;;;;;7.90;4.63;;;14.40;99.90;;;;;;5021261;28;20034;-78
2023/08/05 04:09:56;;;;;;;13.35;4.60;;;14.40;99.90;;;;;;5028459;28;20041;-78
2023/08/05 04:12:22;;;;;;;8.65;4.78;;;14.40;99.90;;;;;;5022509;28;20040;-78
2023/08/05 04:14:50;;;;;;;11.27;5.38;;;14.40;99.90;;;;;;5039629;28;20041;-78
2023/08/05 04:17:16;;;;;;;10.13;5.38;;;14.40;99.90;;;;;;5025742;28;20057;-78
2023/08/05 04:19:46;;;;;;;10.10;4.78;;;14.40;99.90;;;;;;5022717;28;20037;-78
2023/08/05 04:22:12;;;;;;;11.55;5.07;;;14.40;99.90;;;;;;5029820;28;20116;-78
2023/08/05 04:24:39;;;;;;;9.35;4.70;;;14.40;99.90;;;;;;5039704;28;20038;-78
2023/08/05 04:27:05;;;;;;;10.07;4.55;;;14.40;99.90;;;;;;4994782;28;20042;-78
2023/08/05 04:29:30;;;;;;;10.55;4.88;;;14.40;99.90;;;;;;5020482;28;20061;-78
2023/08/05 04:31:57;;;;;;;9.15;5.35;;;14.50;99.90;;;;;;5027678;28;20614;-78
2023/08/05 04:34:22;;;;;;;8.93;5.15;;;14.50;99.90;;;;;;5029615;28;20045;-78
2023/08/05 04:36:52;;;;;;;10.35;6.18;;;14.50;99.90;;;;;;5027388;28;20047;-78
2023/08/05 04:39:21;;;;;;;8.88;5.03;;;14.50;99.90;;;;;;5028552;28;20155;-78
2023/08/05 04:41:47;;;;;;;8.57;4.80;;;14.50;99.90;;;;;;5029611;28;20128;-78
2023/08/05 04:44:13;;;;;;;10.82;5.55;;;14.50;99.90;;;;;;5017934;28;20044;-79
2023/08/05 04:46:39;;;;;;;10.00;4.95;;;14.50;99.90;;;;;;5025562;28;20045;-79
2023/08/05 04:49:07;;;;;;;11.18;5.40;;;14.50;99.90;;;;;;5029632;28;20037;-79
2023/08/05 04:51:34;;;;;;;8.05;4.97;;;14.60;99.90;;;;;;5029600;28;20479;-79
2023/08/05 04:54:00;;;;;;;8.35;5.20;;;14.60;99.90;;;;;;5022674;28;20454;-79
2023/08/05 04:56:26;;;;;;;9.52;5.55;;;14.60;99.90;;;;;;5030864;28;20076;-79
2023/08/05 04:58:52;;;;;;;7.85;4.90;;;14.70;99.90;;;;;;5034147;28;20051;-79
2023/08/05 05:01:17;;;;;;;8.65;4.97;;;14.70;99.90;;;;;;5022461;28;20061;-79
2023/08/05 05:03:48;;;;;;;12.00;5.22;;;14.80;99.90;;;;;;5027204;28;20408;-79
2023/08/05 05:06:14;;;;;;;9.35;5.75;;;14.90;99.90;;;;;;5041342;28;20064;-79
2023/08/05 05:08:40;;;;;;;10.40;5.40;;;14.90;99.90;;;;;;5032535;28;20061;-79
2023/08/05 05:11:06;;;;;;;10.82;5.88;;;15.00;99.90;;;;;;5031759;28;20037;-79
2023/08/05 05:13:31;;;;;;;9.60;5.25;;;15.00;99.90;;;;;;5011721;28;20054;-79
2023/08/05 05:15:57;;;;;;;10.07;5.88;;;15.10;99.90;;;;;;5022413;28;20064;-79
2023/08/05 05:18:22;;;;;;;11.60;5.75;;;15.10;99.90;;;;;;5033433;28;20044;-79
2023/08/05 05:20:53;;;;;;;12.60;6.00;;;15.10;99.90;;;;;;5020235;28;20103;-79
2023/08/05 05:23:19;;;;;;;10.23;5.60;;;15.10;99.90;;;;;;5032935;28;20056;-79
2023/08/05 05:25:45;;;;;;;12.32;6.05;;;15.20;99.90;;;;;;5034520;28;20033;-79
2023/08/05 05:28:10;;;;;;;8.43;6.00;;;15.20;99.90;;;;;;5023279;28;20037;-79
2023/08/05 05:30:36;;;;;;;11.52;6.00;;;15.20;99.90;;;;;;5029024;28;20095;-79
2023/08/05 05:33:02;;;;;;;9.73;6.03;;;15.20;99.90;;;;;;5032027;28;20057;-79
2023/08/05 05:35:29;;;;;;;8.10;5.88;;;15.20;99.90;;;;;;5033145;28;20075;-79
2023/08/05 05:37:54;;;;;;;10.10;5.82;;;15.20;99.90;;;;;;5027873;28;20042;-79
2023/08/05 05:40:20;;;;;;;11.63;5.85;;;15.20;99.90;;;;;;5023238;28;20045;-79
2023/08/05 05:42:48;;;;;;;10.73;5.70;;;15.10;99.90;;;;;;5027039;28;20572;-79
2023/08/05 05:45:14;;;;;;;10.00;5.78;;;15.10;99.90;;;;;;5026481;28;20068;-79
2023/08/05 05:47:40;;;;;;;9.77;5.97;;;15.20;99.90;;;;;;5012103;28;20037;-79
2023/08/05 05:50:06;;;;;;;9.52;5.63;;;15.20;99.90;;;;;;5043267;28;20052;-79
2023/08/05 05:52:32;;;;;;;10.57;6.30;;;15.30;99.90;;;;;;5025371;28;20125;-79
2023/08/05 05:54:57;;;;;;;9.55;5.82;;;15.30;99.90;;;;;;5018616;28;20075;-79
2023/08/05 05:57:23;;;;;;;9.68;5.82;;;15.40;99.90;;;;;;5030736;28;20041;-79
2023/08/05 05:59:49;;;;;;;9.20;5.78;;;15.50;99.90;;;;;;5026519;28;20529;-79
2023/08/05 06:02:14;;;;;;;8.73;5.63;;;15.50;99.90;;;;;;5022723;28;20045;-78
2023/08/05 06:04:42;;;;;;;7.97;5.60;;;15.60;99.90;;;;;;5025694;28;20128;-78
2023/08/05 06:07:08;;;;;;;9.55;5.88;;;15.70;99.90;;;;;;5020953;28;20042;-78
2023/08/05 06:09:34;;;;;;;8.05;5.20;;;15.80;99.90;;;;;;4997722;28;20514;-78
2023/08/05 06:11:59;;;;;;;6.43;4.93;;;15.80;99.90;;;;;;5037808;28;20409;-78
2023/08/05 06:14:26;;;;;;;8.80;5.13;;;15.90;99.90;;;;;;5041221;28;20087;-78
2023/08/05 06:16:51;;;;;;;6.80;4.60;;;15.90;99.90;;;;;;5046249;28;20080;-78
2023/08/05 06:19:17;;;;;;;9.98;5.30;;;16.00;99.90;;;;;;5023644;28;20070;-78
2023/08/05 06:21:43;;;;;;;8.40;4.93;;;16.00;99.90;;;;;;5028790;28;20041;-79
2023/08/05 06:24:08;;;;;;;10.88;5.18;;;16.00;99.90;;;;;;5019423;28;20050;-81
2023/08/05 06:26:34;;;;;;;10.52;5.30;;;16.00;99.90;;;;;;5029435;28;20565;-78
2023/08/05 06:28:59;;;;;;;9.45;4.72;;;16.00;99.90;;;;;;5009698;28;20099;-80
2023/08/05 06:31:25;;;;;;;10.60;5.10;;;16.00;99.90;;;;;;5022757;28;20037;-80
2023/08/05 06:33:51;;;;;;;11.85;5.10;;;16.00;99.90;;;;;;5034502;28;20044;-80
2023/08/05 06:36:16;;;;;;;10.98;5.38;;;15.90;99.90;;;;;;5051338;28;20041;-79
2023/08/05 06:38:42;;;;;;;13.13;5.03;;;16.00;99.90;;;;;;5029946;28;20069;-79
2023/08/05 06:41:08;;;;;;;9.10;5.50;;;15.90;99.90;;;;;;5033821;28;20047;-78
2023/08/05 06:43:33;;;;;;;10.18;5.07;;;15.90;99.90;;;;;;5028584;28;20037;-78
2023/08/05 06:45:59;;;;;;;11.95;5.82;;;15.90;99.90;;;;;;5020236;28;20041;-80
2023/08/05 06:48:24;;;;;;;9.63;4.78;;;15.90;99.90;;;;;;5017850;28;20039;-78
2023/08/05 06:50:50;;;;;;;8.57;5.35;;;15.90;99.90;;;;;;5025314;28;20076;-78
2023/08/05 06:53:17;;;;;;;9.43;5.15;;;16.00;99.90;;;;;;5027883;28;20053;-78
2023/08/05 06:55:42;;;;;;;9.00;5.50;;;16.00;99.90;;;;;;5039123;28;20049;-82
2023/08/05 06:58:08;;;;;;;10.43;5.22;;;16.10;99.90;;;;;;5021705;28;20041;-78
2023/08/05 07:00:34;;;;;;;12.73;6.22;;;16.10;99.90;;;;;;5028411;28;20041;-79
2023/08/05 07:03:01;;;;;;;10.93;5.30;;;16.20;99.90;;;;;;5014234;28;20060;-79
2023/08/05 07:05:27;;;;;;;10.23;5.97;;;16.20;99.90;;;;;;5015905;28;20041;-78
2023/08/05 07:07:52;;;;;;;8.82;6.13;;;16.20;99.90;;;;;;5016231;28;20555;-78
2023/08/05 07:10:18;;;;;;;16.67;5.80;;;16.20;99.90;;;;;;5012882;28;20048;-80
2023/08/05 07:12:44;;;;;;;11.35;5.35;;;16.20;99.90;;;;;;5018600;28;20075;-83
2023/08/05 07:15:09;;;;;;;8.80;5.25;;;16.30;99.90;;;;;;5024052;28;20680;-81
2023/08/05 07:17:35;;;;;;;8.70;4.90;;;16.30;99.90;;;;;;5027616;28;20076;-79
2023/08/05 07:20:03;;;;;;;12.07;5.10;;;16.30;99.90;;;;;;5017330;28;20045;-79
2023/08/05 07:22:29;;;;;;;7.60;4.95;;;16.40;99.90;;;;;;5009475;28;20087;-80
2023/08/05 07:24:55;;;;;;;9.68;5.28;;;16.40;99.90;;;;;;4995904;28;20042;-80
2023/08/05 07:27:21;;;;;;;13.18;5.10;;;16.50;99.90;;;;;;5029887;28;20110;-80
2023/08/05 07:29:46;;;;;;;11.02;5.10;;;16.50;99.90;;;;;;5020255;28;20045;-81
2023/08/05 07:32:12;;;;;;;11.13;4.85;;;16.60;99.90;;;;;;5013218;28;20045;-80
2023/08/05 07:34:38;;;;;;;11.65;5.15;;;16.70;99.90;;;;;;5036944;28;20040;-80
2023/08/05 07:37:05;;;;;;;14.18;5.10;;;16.70;99.90;;;;;;5021708;28;20481;-80
2023/08/05 07:39:33;;;;;;;13.70;5.18;;;16.80;99.90;;;;;;5045881;28;20041;-80
2023/08/05 07:42:03;;;;;;;9.38;4.40;;;16.80;99.90;;;;;;5028975;28;20456;-80
2023/08/05 07:44:33;;;;;;;7.75;4.65;;;16.80;99.90;;;;;;5004160;28;20037;-80
2023/08/05 07:46:59;;;;;;;10.25;4.50;;;16.90;99.90;;;;;;5025956;28;20747;-80
2023/08/05 07:49:26;;;;;;;9.18;4.38;;;16.90;99.90;;;;;;5012797;28;20068;-82
2023/08/05 07:51:53;;;;;;;9.32;4.60;;;16.90;99.90;;;;;;5024741;28;20059;-80
2023/08/05 07:54:20;;;;;;;8.35;4.22;;;17.00;99.90;;;;;;5023449;28;20120;-82
2023/08/05 07:56:46;;;;;;;8.82;4.20;;;17.00;99.90;;;;;;5026664;28;20120;-80
2023/08/05 07:59:12;;;;;;;7.10;4.05;;;17.10;99.90;;;;;;5018134;28;20556;-80
2023/08/05 08:01:42;;;;;;;8.15;3.58;;;17.20;99.90;;;;;;5021956;28;20094;-80
2023/08/05 08:04:09;;;;;;;7.32;4.10;;;17.20;99.90;;;;;;5027335;28;20073;-80
2023/08/05 08:06:35;;;;;;;9.18;4.35;;;17.30;99.90;;;;;;5011789;28;20049;-80
2023/08/05 08:09:01;;;;;;;7.75;4.05;;;17.30;99.90;;;;;;5020836;28;20045;-80
2023/08/05 08:11:26;;;;;;;9.98;4.18;;;17.30;99.90;;;;;;5018237;28;20037;-79
2023/08/05 08:13:52;;;;;;;7.55;4.32;;;17.50;99.90;;;;;;5024896;28;20045;-80
2023/08/05 08:16:18;;;;;;;8.27;3.90;;;17.60;99.90;;;;;;5014557;28;20046;-80
2023/08/05 08:18:44;;;;;;;10.48;4.00;;;17.60;99.90;;;;;;5015103;28;20085;-80
2023/08/05 08:21:09;;;;;;;8.05;3.63;;;17.70;99.90;;;;;;5002426;28;20041;-80
2023/08/05 08:23:35;;;;;;;7.72;3.65;;;17.80;99.90;;;;;;5027806;28;20049;-80
2023/08/05 08:26:01;;;;;;;5.63;3.40;;;17.90;99.90;;;;;;5024546;28;20108;-80
2023/08/05 08:28:27;;;;;;;7.90;3.28;;;17.90;99.90;;;;;;5015887;28;20120;-80
2023/08/05 08:30:57;;;;;;;4.35;3.15;;;17.90;99.90;;;;;;5020095;28;20047;-80
2023/08/05 08:33:24;;;;;;;5.45;2.80;;;17.90;99.90;;;;;;5024440;28;20405;-80
2023/08/05 08:35:50;;;;;;;9.73;3.63;;;17.90;99.90;;;;;;5044863;28;20040;-80
2023/08/05 08:38:17;;;;;;;7.47;3.22;;;18.00;99.90;;;;;;5026607;28;20667;-80
2023/08/05 08:40:50;;;;;;;7.53;3.13;;;18.00;99.90;;;;;;4986568;28;20033;-81
2023/08/05 08:43:20;;;;;;;6.05;3.10;;;18.20;99.90;;;;;;5022679;28;20095;-80
2023/08/05 08:45:48;;;;;;;7.15;2.97;;;18.40;99.90;;;;;;5020190;28;20037;-80
2023/08/05 08:48:15;;;;;;;9.13;2.90;;;18.50;99.90;;;;;;5023981;28;20056;-80
2023/08/05 08:50:43;;;;;;;9.30;3.20;;;18.60;99.90;;;;;;5013034;28;20062;-80
2023/08/05 08:53:12;;;;;;;7.65;3.38;;;18.70;99.90;;;;;;5023795;28;20045;-80
2023/08/05 08:55:38;;;;;;;5.95;2.80;;;18.70;99.90;;;;;;5020724;28;20095;-80
2023/08/05 08:58:04;;;;;;;6.75;2.63;;;18.70;99.90;;;;;;5020942;28;20452;-80
2023/08/05 09:00:32;;;;;;;8.77;3.08;;;18.80;99.90;;;;;;5018531;28;20037;-80
2023/08/05 09:03:01;;;;;;;6.80;3.15;;;18.90;99.90;;;;;;4998141;28;20421;-80
2023/08/05 09:05:41;;;;;;;6.55;2.63;;;18.90;99.90;;;;;;5016338;28;20033;-80
2023/08/05 09:08:07;;;;;;;7.78;3.20;;;18.90;99.90;;;;;;5018640;28;20049;-80
2023/08/05 09:10:37;;;;;;;6.18;3.10;;;19.00;99.90;;;;;;5025077;28;20382;-80
2023/08/05 09:13:03;;;;;;;5.88;2.95;;;19.20;99.90;;;;;;5016398;28;20045;-80
2023/08/05 09:15:36;;;;;;;8.05;3.03;;;19.50;99.90;;;;;;5026375;28;20045;-80
2023/08/05 09:18:04;;;;;;;4.25;2.50;;;19.70;99.90;;;;;;5019691;28;20045;-81
2023/08/05 09:20:34;;;;;;;6.50;3.08;;;20.00;99.90;;;;;;5021545;28;20128;-80
2023/08/05 09:23:02;;;;;;;7.05;3.05;;;20.10;99.90;;;;;;5012361;28;20118;-80
2023/08/05 09:25:32;;;;;;;6.85;3.10;;;20.10;99.90;;;;;;5021144;28;20113;-82
2023/08/05 09:28:00;;;;;;;7.07;3.33;;;20.20;99.90;;;;;;5018116;28;20132;-81
2023/08/05 09:30:25;;;;;;;4.68;2.67;;;20.20;99.90;;;;;;5031520;28;20394;-81
2023/08/05 09:32:52;;;;;;;5.65;2.90;;;20.20;99.90;;;;;;5015911;28;20033;-80
2023/08/05 09:35:18;;;;;;;7.30;3.13;;;20.20;99.90;;;;;;5021993;28;20124;-81
2023/08/05 09:37:46;;;;;;;6.45;3.33;;;20.30;99.90;;;;;;5025303;28;20121;-81
2023/08/05 09:40:21;;;;;;;5.35;2.92;;;20.40;99.90;;;;;;5023756;28;20049;-80
2023/08/05 09:42:57;;;;;;;6.75;2.95;;;20.50;99.90;;;;;;5029133;28;20098;-80
2023/08/05 09:45:25;;;;;;;5.88;3.35;;;20.60;99.90;;;;;;5024391;28;20037;-80
2023/08/05 09:48:00;;;;;;;5.90;3.33;;;20.50;99.90;;;;;;5019344;28;20080;-81
2023/08/05 09:50:27;;;;;;;6.53;3.00;;;20.50;99.90;;;;;;5019255;28;20072;-80
2023/08/05 09:52:56;;;;;;;6.30;3.63;;;20.50;99.90;;;;;;5008329;28;20034;-80
2023/08/05 09:55:22;;;;;;;5.22;3.30;;;20.40;99.90;;;;;;5025941;28;20073;-81
2023/08/05 09:57:49;;;;;;;5.18;3.40;;;20.30;99.90;;;;;;5023530;28;20049;-81
2023/08/05 10:00:15;;;;;;;9.07;3.80;;;20.30;99.90;;;;;;5044402;28;20045;-81
2023/08/05 10:02:45;;;;;;;7.32;3.97;;;20.20;99.90;;;;;;5034374;28;20056;-81
2023/08/05 10:05:12;;;;;;;8.07;3.90;;;20.20;99.90;;;;;;5006663;28;20044;-80
2023/08/05 10:07:42;;;;;;;7.93;3.83;;;20.30;99.90;;;;;;5025718;28;20041;-80
2023/08/05 10:10:11;;;;;;;8.07;4.50;;;20.40;99.90;;;;;;5036792;28;20041;-81
2023/08/05 10:12:51;;;;;;;8.32;4.32;;;20.40;99.90;;;;;;5035611;28;20129;-82
2023/08/05 10:15:28;;;;;;;7.85;4.45;;;20.40;99.90;;;;;;5029337;28;20068;-82
2023/08/05 10:17:54;;;;;;;9.48;5.28;;;20.40;99.90;;;;;;5028998;28;20041;-81
2023/08/05 10:20:20;;;;;;;9.68;5.03;;;20.50;99.90;;;;;;5013580;28;20048;-81
2023/08/05 10:23:09;;;;;;;10.05;4.70;;;20.60;99.90;;;;;;5020160;28;20041;-80
2023/08/05 10:25:42;;;;;;;6.90;4.97;;;20.80;99.90;;;;;;5027123;28;20045;-80
2023/08/05 10:28:30;;;;;;;7.88;5.30;;;20.90;99.90;;;;;;4999478;28;20045;-80
2023/08/05 10:30:56;;;;;;;7.90;4.80;;;21.00;99.90;;;;;;5013631;28;20060;-80
2023/08/05 10:33:22;;;;;;;10.23;5.15;;;21.00;99.90;;;;;;5022660;28;20046;-80
2023/08/05 10:35:49;;;;;;;6.85;4.88;;;21.00;99.90;;;;;;5020388;28;20052;-81
2023/08/05 10:38:23;;;;;;;9.98;4.75;;;20.90;99.90;;;;;;5028930;28;20049;-81
2023/08/05 10:40:49;;;;;;;6.35;4.15;;;20.80;99.90;;;;;;5028603;28;20044;-81
2023/08/05 10:43:30;;;;;;;7.07;3.88;;;20.60;99.90;;;;;;5031781;28;20477;-81
2023/08/05 10:45:59;;;;;;;9.20;4.35;;;20.40;99.90;;;;;;5026710;28;20088;-81
2023/08/05 10:48:30;;;;;;;6.38;3.90;;;20.30;99.90;;;;;;5030271;28;20083;-81
2023/08/05 10:50:57;;;;;;;6.38;3.78;;;20.20;99.90;;;;;;5014257;28;20045;-81
2023/08/05 10:53:22;;;;;;;6.90;4.13;;;20.00;99.90;;;;;;5033755;28;20531;-81
2023/08/05 10:55:58;;;;;;;6.97;4.53;;;20.00;99.90;;;;;;5022600;28;20041;-80
2023/08/05 10:58:27;;;;;;;7.75;4.53;;;19.80;99.90;;;;;;5036757;28;20056;-80
2023/08/05 11:01:00;;;;;;;8.40;5.63;;;19.70;99.90;;;;;;5027288;28;20038;-80
2023/08/05 11:03:45;;;;;;;9.05;5.97;;;19.60;99.90;;;;;;5026712;28;20041;-80
2023/08/05 11:06:12;;;;;;;8.05;6.70;;;19.50;99.90;;;;;;5027522;28;20080;-80
2023/08/05 11:08:40;;;;;;;12.07;7.15;;;19.50;99.90;;;;;;5030248;28;20044;-80
2023/08/05 11:11:13;;;;;;;9.90;6.68;;;19.60;99.90;;;;;;5029764;28;20048;-80
2023/08/05 11:13:40;;;;;;;11.70;6.65;;;19.60;99.90;;;;;;5007266;28;20041;-80
2023/08/05 11:16:13;;;;;;;9.95;6.53;;;19.80;99.90;;;;;;5023777;28;20083;-80
2023/08/05 11:18:41;;;;;;;10.10;6.95;;;20.10;99.90;;;;;;5027735;28;20050;-80
2023/08/05 11:21:13;;;;;;;10.25;6.68;;;20.30;99.90;;;;;;5025410;28;20448;-80
2023/08/05 11:23:40;;;;;;;9.88;6.47;;;20.60;99.90;;;;;;5030508;28;20037;-80
2023/08/05 11:26:07;;;;;;;8.90;6.38;;;20.80;99.90;;;;;;5027370;28;20080;-80
2023/08/05 11:28:34;;;;;;;7.60;5.72;;;21.00;99.90;;;;;;5030295;28;20047;-80
2023/08/05 11:31:02;;;;;;;7.63;6.05;;;21.10;99.90;;;;;;5030757;28;20076;-80
2023/08/05 11:33:28;;;;;;;9.25;6.00;;;21.30;99.90;;;;;;5027208;28;20045;-80
2023/08/05 11:35:54;;;;;;;9.90;6.00;;;21.50;99.90;;;;;;5049629;28;20091;-80
2023/08/05 11:38:24;;;;;;;7.55;4.95;;;21.60;99.90;;;;;;5025391;28;20045;-80
2023/08/05 11:40:55;;;;;;;8.95;4.40;;;21.70;99.90;;;;;;5029761;28;20076;-80
2023/08/05 11:43:21;;;;;;;8.00;4.78;;;21.90;99.90;;;;;;5030084;28;20123;-80
2023/08/05 11:45:48;;;;;;;6.07;4.40;;;22.00;99.90;;;;;;5031182;28;20075;-81
2023/08/05 11:48:23;;;;;;;5.55;4.20;;;22.10;99.90;;;;;;5033013;28;20048;-80
2023/08/05 11:50:51;;;;;;;5.90;4.40;;;22.10;99.90;;;;;;5021099;28;20041;-80
2023/08/05 11:53:17;;;;;;;6.80;4.40;;;22.20;99.90;;;;;;5030737;28;20053;-80
2023/08/05 11:55:44;;;;;;;6.68;4.75;;;22.30;99.90;;;;;;5027459;28;20052;-80
2023/08/05 11:58:11;;;;;;;4.85;3.50;;;22.30;99.90;;;;;;5018868;28;20048;-80
2023/08/05 12:00:41;;;;;;;7.03;4.53;;;22.30;99.90;;;;;;5025488;28;20049;-80
2023/08/05 12:03:08;;;;;;;7.72;4.35;;;22.20;99.90;;;;;;5058809;22;20052;-79
2023/08/05 12:05:35;;;;;;;7.00;4.35;;;22.10;99.90;;;;;;5045787;28;20025;-79
2023/08/05 12:08:05;;;;;;;6.00;4.22;;;21.90;99.90;;;;;;5020257;28;20539;-79
2023/08/05 12:10:39;;;;;;;6.88;3.65;;;21.80;99.90;;;;;;5046021;28;20084;-79
2023/08/05 12:13:13;;;;;;;4.78;3.65;;;21.70;99.90;;;;;;5012218;28;20500;-79
2023/08/05 12:15:41;;;;;;;5.50;3.55;;;21.70;99.90;;;;;;5006915;28;20037;-79
2023/08/05 12:18:07;;;;;;;5.43;3.60;;;21.60;99.90;;;;;;5005957;28;20132;-80
2023/08/05 12:20:36;;;;;;;7.35;3.30;;;21.60;99.90;;;;;;5002466;28;20107;-79
2023/08/05 12:23:06;;;;;;;5.82;3.17;;;21.60;99.90;;;;;;5021794;28;20134;-79
2023/08/05 12:25:55;;;;;;;5.63;2.90;;;21.50;99.90;;;;;;5009362;28;20129;-79
2023/08/05 12:28:42;;;;;;;4.63;2.97;;;21.50;99.90;;;;;;5038662;28;20078;-79
2023/08/05 12:31:23;;;;;;;7.25;2.50;;;21.60;99.90;;;;;;5003006;28;20077;-79
2023/08/05 12:33:54;;;;;;;4.20;2.40;;;21.70;99.90;;;;;;5008174;28;20094;-79
2023/08/05 12:36:40;;;;;;;4.38;2.40;;;21.70;99.90;;;;;;5026667;28;20040;-79
2023/08/05 12:39:14;;;;;;;3.88;2.50;;;21.70;99.90;;;;;;5024660;28;20117;-79
2023/08/05 12:42:16;;;;;;;4.85;2.45;;;21.60;99.90;;;;;;5034934;28;20429;-79
2023/08/05 12:44:45;;;;;;;4.68;2.70;;;21.60;99.90;;;;;;5003744;28;20543;-79